createdAt,value
2022-08-02T00:02:50.041Z,22.0
2022-08-02T00:22:50.017Z,21.4
2022-08-02T00:42:50.061Z,21.3
2022-08-02T01:02:49.956Z,21.0
2022-08-02T01:22:49.926Z,20.9
2022-08-02T01:42:49.854Z,20.7
2022-08-02T02:02:49.843Z,20.3
2022-08-02T02:22:49.849Z,20.4
2022-08-02T02:42:49.819Z,20.3
2022-08-02T03:02:49.813Z,20.1
2022-08-02T03:22:49.698Z,20.1
2022-08-02T03:42:49.744Z,19.9
2022-08-02T04:22:49.698Z,19.9
2022-08-02T04:42:49.680Z,19.9
2022-08-02T05:02:49.602Z,19.5
2022-08-02T05:22:49.655Z,19.9
2022-08-02T05:42:49.557Z,20.2
2022-08-02T06:02:49.570Z,20.5
2022-08-02T06:22:49.551Z,20.7
2022-08-02T06:42:49.460Z,21.1
2022-08-02T07:22:49.498Z,21.8
2022-08-02T07:42:49.450Z,22.3
2022-08-02T08:02:49.374Z,22.9
2022-08-02T08:22:49.310Z,23.5
2022-08-02T08:42:49.323Z,24.2
2022-08-02T09:02:49.313Z,24.7
2022-08-02T09:22:49.335Z,25.2
2022-08-02T09:42:49.239Z,25.9
2022-08-02T10:02:49.257Z,26.4
2022-08-02T10:22:49.170Z,26.8
2022-08-02T10:42:49.224Z,27.4
2022-08-02T11:02:49.189Z,28.2
2022-08-02T11:22:49.105Z,28.5
2022-08-02T11:42:49.061Z,29.2
2022-08-02T12:02:49.028Z,29.0
2022-08-02T12:22:49.018Z,30.0
2022-08-02T12:42:49.008Z,30.0
2022-08-02T13:02:49.020Z,30.8
2022-08-02T13:22:48.930Z,30.5
2022-08-02T13:42:48.930Z,31.6
2022-08-02T14:02:48.891Z,30.9
2022-08-02T14:42:48.939Z,31.8
2022-08-02T15:02:48.835Z,31.3
2022-08-02T15:22:48.795Z,30.8
2022-08-02T15:42:48.793Z,30.8
2022-08-02T16:02:48.820Z,30.4
2022-08-02T16:22:48.713Z,30.1
2022-08-02T16:42:48.711Z,29.6
2022-08-02T17:02:48.681Z,29.8
2022-08-02T17:22:48.717Z,29.6
2022-08-02T17:42:48.686Z,29.2
2022-08-02T18:02:48.749Z,28.8
2022-08-02T18:22:48.777Z,28.4
2022-08-02T18:42:48.642Z,28.3
2022-08-02T19:02:48.535Z,27.7
2022-08-02T19:22:48.583Z,27.3
2022-08-02T19:42:48.484Z,26.7
2022-08-02T20:02:48.491Z,26.0
2022-08-02T20:22:48.476Z,25.4
2022-08-02T20:42:48.422Z,25.1
2022-08-02T21:02:48.418Z,24.7
2022-08-02T21:22:48.349Z,24.5
2022-08-02T21:42:48.318Z,24.1
2022-08-02T22:02:48.319Z,23.2
2022-08-02T22:22:48.361Z,23.3
2022-08-02T22:42:48.284Z,23.0
2022-08-02T23:02:48.264Z,22.7
2022-08-02T23:22:48.210Z,22.1
2022-08-02T23:42:48.202Z,22.4
